sensor_id;sensor_type;location;lat;lon;timestamp;pressure;altitude;pressure_sealevel;temperature;humidity
37778;BME280;23615;51.506;7.678;2022-07-23T00:00:43;100351.00;;;17.13;89.04
37778;BME280;23615;51.506;7.678;2022-07-23T00:03:09;100348.56;;;17.12;89.65
37778;BME280;23615;51.506;7.678;2022-07-23T00:05:35;100346.41;;;17.09;90.11
37778;BME280;23615;51.506;7.678;2022-07-23T00:08:00;100333.72;;;17.09;90.34
37778;BME280;23615;51.506;7.678;2022-07-23T00:10:25;100333.69;;;17.04;90.97
37778;BME280;23615;51.506;7.678;2022-07-23T00:12:50;100327.47;;;17.04;91.29
37778;BME280;23615;51.506;7.678;2022-07-23T00:15:16;100318.88;;;17.07;91.84
37778;BME280;23615;51.506;7.678;2022-07-23T00:17:41;100314.56;;;17.06;92.33
37778;BME280;23615;51.506;7.678;2022-07-23T00:20:07;100311.28;;;17.04;92.79
37778;BME280;23615;51.506;7.678;2022-07-23T00:22:32;100313.75;;;17.05;92.68
37778;BME280;23615;51.506;7.678;2022-07-23T00:24:58;100321.00;;;17.05;92.93
37778;BME280;23615;51.506;7.678;2022-07-23T00:27:24;100323.16;;;17.03;93.15
37778;BME280;23615;51.506;7.678;2022-07-23T00:29:49;100325.38;;;17.11;93.40
37778;BME280;23615;51.506;7.678;2022-07-23T00:32:14;100334.56;;;17.10;93.58
37778;BME280;23615;51.506;7.678;2022-07-23T00:34:40;100332.34;;;17.07;93.81
37778;BME280;23615;51.506;7.678;2022-07-23T00:37:05;100330.72;;;17.06;94.03
37778;BME280;23615;51.506;7.678;2022-07-23T00:39:30;100334.22;;;17.01;94.29
37778;BME280;23615;51.506;7.678;2022-07-23T00:41:56;100326.66;;;17.03;94.58
37778;BME280;23615;51.506;7.678;2022-07-23T00:44:23;100321.00;;;17.00;94.74
37778;BME280;23615;51.506;7.678;2022-07-23T00:46:52;100320.00;;;17.11;94.56
37778;BME280;23615;51.506;7.678;2022-07-23T00:49:20;100323.50;;;17.11;94.02
37778;BME280;23615;51.506;7.678;2022-07-23T00:51:46;100328.28;;;17.04;94.32
37778;BME280;23615;51.506;7.678;2022-07-23T00:54:11;100318.53;;;16.98;94.72
37778;BME280;23615;51.506;7.678;2022-07-23T00:56:37;100310.97;;;16.95;95.25
37778;BME280;23615;51.506;7.678;2022-07-23T00:59:03;100315.59;;;17.00;95.02
37778;BME280;23615;51.506;7.678;2022-07-23T01:01:28;100302.63;;;16.97;94.98
37778;BME280;23615;51.506;7.678;2022-07-23T01:03:54;100301.56;;;16.98;94.84
37778;BME280;23615;51.506;7.678;2022-07-23T01:06:19;100291.09;;;17.01;94.79
37778;BME280;23615;51.506;7.678;2022-07-23T01:08:45;100291.28;;;16.95;95.05
37778;BME280;23615;51.506;7.678;2022-07-23T01:11:11;100287.25;;;16.97;94.98
37778;BME280;23615;51.506;7.678;2022-07-23T01:13:41;100288.06;;;16.93;95.07
37778;BME280;23615;51.506;7.678;2022-07-23T01:16:06;100297.16;;;16.87;95.41
37778;BME280;23615;51.506;7.678;2022-07-23T01:18:31;100282.59;;;16.82;95.66
37778;BME280;23615;51.506;7.678;2022-07-23T01:20:57;100272.31;;;16.79;95.76
37778;BME280;23615;51.506;7.678;2022-07-23T01:23:22;100273.13;;;16.80;95.74
37778;BME280;23615;51.506;7.678;2022-07-23T01:25:56;100282.28;;;16.79;95.89
37778;BME280;23615;51.506;7.678;2022-07-23T01:28:22;100288.78;;;16.83;95.71
37778;BME280;23615;51.506;7.678;2022-07-23T01:30:48;100295.59;;;16.91;95.38
37778;BME280;23615;51.506;7.678;2022-07-23T01:33:13;100284.22;;;16.83;95.78
37778;BME280;23615;51.506;7.678;2022-07-23T01:35:39;100293.88;;;16.79;95.91
37778;BME280;23615;51.506;7.678;2022-07-23T01:38:04;100289.84;;;16.82;95.92
37778;BME280;23615;51.506;7.678;2022-07-23T01:40:29;100289.03;;;16.81;96.37
37778;BME280;23615;51.506;7.678;2022-07-23T01:42:55;100293.66;;;16.86;95.89
37778;BME280;23615;51.506;7.678;2022-07-23T01:45:20;100293.06;;;16.79;95.78
37778;BME280;23615;51.506;7.678;2022-07-23T01:47:46;100283.91;;;16.80;95.75
37778;BME280;23615;51.506;7.678;2022-07-23T01:50:12;100293.56;;;16.76;96.17
37778;BME280;23615;51.506;7.678;2022-07-23T01:52:37;100275.50;;;16.76;96.30
37778;BME280;23615;51.506;7.678;2022-07-23T01:55:02;100273.09;;;16.75;96.31
37778;BME280;23615;51.506;7.678;2022-07-23T01:57:28;100274.69;;;16.76;96.39
37778;BME280;23615;51.506;7.678;2022-07-23T01:59:53;100269.59;;;16.74;96.26
37778;BME280;23615;51.506;7.678;2022-07-23T02:02:18;100275.81;;;16.75;96.38
37778;BME280;23615;51.506;7.678;2022-07-23T02:04:44;100273.34;;;16.73;96.44
37778;BME280;23615;51.506;7.678;2022-07-23T02:07:09;100266.34;;;16.72;96.42
37778;BME280;23615;51.506;7.678;2022-07-23T02:09:34;100264.16;;;16.69;96.44
37778;BME280;23615;51.506;7.678;2022-07-23T02:12:00;100258.50;;;16.71;96.70
37778;BME280;23615;51.506;7.678;2022-07-23T02:14:26;100263.09;;;16.70;96.34
37778;BME280;23615;51.506;7.678;2022-07-23T02:16:51;100262.03;;;16.71;96.54
37778;BME280;23615;51.506;7.678;2022-07-23T02:19:16;100256.63;;;16.71;96.30
37778;BME280;23615;51.506;7.678;2022-07-23T02:21:42;100260.09;;;16.67;96.72
37778;BME280;23615;51.506;7.678;2022-07-23T02:24:07;100261.19;;;16.66;96.94
37778;BME280;23615;51.506;7.678;2022-07-23T02:26:32;100263.06;;;16.65;97.01
37778;BME280;23615;51.506;7.678;2022-07-23T02:29:00;100268.72;;;16.69;96.82
37778;BME280;23615;51.506;7.678;2022-07-23T02:31:25;100261.78;;;16.78;96.25
37778;BME280;23615;51.506;7.678;2022-07-23T02:33:51;100264.97;;;16.70;96.44
37778;BME280;23615;51.506;7.678;2022-07-23T02:36:16;100260.91;;;16.67;96.77
37778;BME280;23615;51.506;7.678;2022-07-23T02:38:41;100258.41;;;16.61;97.02
37778;BME280;23615;51.506;7.678;2022-07-23T02:41:07;100262.94;;;16.55;97.70
37778;BME280;23615;51.506;7.678;2022-07-23T02:43:32;100271.03;;;16.55;97.61
37778;BME280;23615;51.506;7.678;2022-07-23T02:45:57;100273.53;;;16.62;96.93
37778;BME280;23615;51.506;7.678;2022-07-23T02:48:22;100269.16;;;16.61;97.00
37778;BME280;23615;51.506;7.678;2022-07-23T02:50:48;100270.47;;;16.53;97.25
37778;BME280;23615;51.506;7.678;2022-07-23T02:53:13;100268.25;;;16.50;97.74
37778;BME280;23615;51.506;7.678;2022-07-23T02:55:38;100259.09;;;16.46;97.98
37778;BME280;23615;51.506;7.678;2022-07-23T02:58:04;100259.13;;;16.51;97.97
37778;BME280;23615;51.506;7.678;2022-07-23T03:00:29;100262.88;;;16.50;97.56
37778;BME280;23615;51.506;7.678;2022-07-23T03:02:54;100273.16;;;16.53;97.14
37778;BME280;23615;51.506;7.678;2022-07-23T03:05:20;100267.72;;;16.48;97.10
37778;BME280;23615;51.506;7.678;2022-07-23T03:07:45;100263.91;;;16.44;97.19
37778;BME280;23615;51.506;7.678;2022-07-23T03:10:10;100263.91;;;16.44;97.37
37778;BME280;23615;51.506;7.678;2022-07-23T03:12:36;100261.16;;;16.39;97.21
37778;BME280;23615;51.506;7.678;2022-07-23T03:15:01;100262.75;;;16.35;97.22
37778;BME280;23615;51.506;7.678;2022-07-23T03:17:26;100265.94;;;16.32;96.90
37778;BME280;23615;51.506;7.678;2022-07-23T03:19:52;100262.66;;;16.25;97.05
37778;BME280;23615;51.506;7.678;2022-07-23T03:22:17;100258.34;;;16.24;97.18
37778;BME280;23615;51.506;7.678;2022-07-23T03:24:42;100269.91;;;16.24;97.20
37778;BME280;23615;51.506;7.678;2022-07-23T03:27:29;100267.72;;;16.21;96.95
37778;BME280;23615;51.506;7.678;2022-07-23T03:29:57;100272.13;;;16.27;96.85
37778;BME280;23615;51.506;7.678;2022-07-23T03:32:23;100276.69;;;16.27;97.02
37778;BME280;23615;51.506;7.678;2022-07-23T03:34:49;100275.31;;;16.24;97.46
37778;BME280;23615;51.506;7.678;2022-07-23T03:37:15;100275.88;;;16.26;97.51
37778;BME280;23615;51.506;7.678;2022-07-23T03:39:40;100278.25;;;16.23;98.21
37778;BME280;23615;51.506;7.678;2022-07-23T03:42:06;100276.38;;;16.23;98.46
37778;BME280;23615;51.506;7.678;2022-07-23T03:44:32;100270.97;;;16.23;98.64
37778;BME280;23615;51.506;7.678;2022-07-23T03:46:57;100266.16;;;16.25;98.52
37778;BME280;23615;51.506;7.678;2022-07-23T03:49:23;100264.78;;;16.23;98.52
37778;BME280;23615;51.506;7.678;2022-07-23T03:51:48;100272.28;;;16.21;98.46
37778;BME280;23615;51.506;7.678;2022-07-23T03:54:13;100265.00;;;16.16;98.39
37778;BME280;23615;51.506;7.678;2022-07-23T03:56:39;100261.75;;;16.14;98.00
37778;BME280;23615;51.506;7.678;2022-07-23T03:59:04;100259.81;;;16.09;97.99
37778;BME280;23615;51.506;7.678;2022-07-23T04:01:29;100263.34;;;16.10;97.68
37778;BME280;23615;51.506;7.678;2022-07-23T04:03:55;100266.19;;;16.03;97.23
37778;BME280;23615;51.506;7.678;2022-07-23T04:06:20;100266.97;;;15.99;97.14
37778;BME280;23615;51.506;7.678;2022-07-23T04:08:45;100270.97;;;15.96;96.71
37778;BME280;23615;51.506;7.678;2022-07-23T04:11:10;100272.28;;;15.94;96.79
37778;BME280;23615;51.506;7.678;2022-07-23T04:13:36;100269.06;;;15.92;96.52
37778;BME280;23615;51.506;7.678;2022-07-23T04:16:01;100267.69;;;15.89;96.69
37778;BME280;23615;51.506;7.678;2022-07-23T04:18:26;100276.84;;;15.93;96.60
37778;BME280;23615;51.506;7.678;2022-07-23T04:20:52;100277.66;;;15.94;96.13
37778;BME280;23615;51.506;7.678;2022-07-23T04:23:17;100277.38;;;15.90;96.22
37778;BME280;23615;51.506;7.678;2022-07-23T04:25:43;100273.56;;;15.86;96.71
37778;BME280;23615;51.506;7.678;2022-07-23T04:28:08;100278.13;;;15.86;96.62
37778;BME280;23615;51.506;7.678;2022-07-23T04:30:33;100274.63;;;15.85;96.79
37778;BME280;23615;51.506;7.678;2022-07-23T04:32:59;100275.19;;;15.87;96.91
37778;BME280;23615;51.506;7.678;2022-07-23T04:35:24;100283.25;;;15.87;96.88
37778;BME280;23615;51.506;7.678;2022-07-23T04:37:49;100276.25;;;15.86;96.99
37778;BME280;23615;51.506;7.678;2022-07-23T04:40:15;100280.56;;;15.87;97.17
37778;BME280;23615;51.506;7.678;2022-07-23T04:42:40;100281.63;;;15.86;96.92
37778;BME280;23615;51.506;7.678;2022-07-23T04:45:06;100285.69;;;15.89;97.44
37778;BME280;23615;51.506;7.678;2022-07-23T04:47:31;100288.38;;;15.89;97.35
37778;BME280;23615;51.506;7.678;2022-07-23T04:49:57;100289.19;;;15.89;97.73
37778;BME280;23615;51.506;7.678;2022-07-23T04:52:22;100291.66;;;15.91;98.05
37778;BME280;23615;51.506;7.678;2022-07-23T04:54:48;100298.69;;;15.97;98.13
37778;BME280;23615;51.506;7.678;2022-07-23T04:57:13;100297.63;;;15.98;97.81
37778;BME280;23615;51.506;7.678;2022-07-23T04:59:39;100300.66;;;16.01;98.12
37778;BME280;23615;51.506;7.678;2022-07-23T05:02:04;100299.63;;;16.07;98.35
37778;BME280;23615;51.506;7.678;2022-07-23T05:04:29;100304.78;;;16.09;98.55
37778;BME280;23615;51.506;7.678;2022-07-23T05:06:56;100312.59;;;16.11;98.72
37778;BME280;23615;51.506;7.678;2022-07-23T05:09:21;100308.16;;;15.99;98.77
37778;BME280;23615;51.506;7.678;2022-07-23T05:11:46;100312.03;;;16.08;98.94
37778;BME280;23615;51.506;7.678;2022-07-23T05:14:12;100315.78;;;16.07;99.16
37778;BME280;23615;51.506;7.678;2022-07-23T05:16:38;100319.28;;;16.08;99.33
37778;BME280;23615;51.506;7.678;2022-07-23T05:19:03;100322.28;;;16.12;99.35
37778;BME280;23615;51.506;7.678;2022-07-23T05:21:28;100323.16;;;16.17;99.50
37778;BME280;23615;51.506;7.678;2022-07-23T05:23:54;100325.91;;;16.22;99.01
37778;BME280;23615;51.506;7.678;2022-07-23T05:26:19;100318.59;;;16.18;98.98
37778;BME280;23615;51.506;7.678;2022-07-23T05:28:44;100325.25;;;16.10;99.55
37778;BME280;23615;51.506;7.678;2022-07-23T05:31:09;100318.16;;;16.04;100.00
37778;BME280;23615;51.506;7.678;2022-07-23T05:33:35;100324.69;;;16.08;100.00
37778;BME280;23615;51.506;7.678;2022-07-23T05:36:04;100324.69;;;16.08;100.00
37778;BME280;23615;51.506;7.678;2022-07-23T05:38:30;100331.94;;;16.07;100.00
37778;BME280;23615;51.506;7.678;2022-07-23T05:40:55;100335.25;;;16.15;100.00
37778;BME280;23615;51.506;7.678;2022-07-23T05:43:21;100331.53;;;16.21;100.00
37778;BME280;23615;51.506;7.678;2022-07-23T05:45:46;100335.19;;;16.09;100.00
37778;BME280;23615;51.506;7.678;2022-07-23T05:48:11;100338.34;;;16.01;100.00
37778;BME280;23615;51.506;7.678;2022-07-23T05:50:37;100338.34;;;16.01;100.00
37778;BME280;23615;51.506;7.678;2022-07-23T05:53:02;100345.59;;;16.01;100.00
37778;BME280;23615;51.506;7.678;2022-07-23T05:55:27;100337.31;;;16.07;100.00
37778;BME280;23615;51.506;7.678;2022-07-23T05:57:55;100341.19;;;16.17;100.00
37778;BME280;23615;51.506;7.678;2022-07-23T06:00:20;100341.22;;;16.22;100.00
37778;BME280;23615;51.506;7.678;2022-07-23T06:02:46;100343.94;;;16.22;100.00
37778;BME280;23615;51.506;7.678;2022-07-23T06:05:11;100344.44;;;16.19;100.00
37778;BME280;23615;51.506;7.678;2022-07-23T06:07:36;100352.56;;;16.24;100.00
37778;BME280;23615;51.506;7.678;2022-07-23T06:10:02;100352.66;;;16.29;100.00
37778;BME280;23615;51.506;7.678;2022-07-23T06:12:29;100354.25;;;16.30;100.00
37778;BME280;23615;51.506;7.678;2022-07-23T06:14:54;100358.09;;;16.39;100.00
37778;BME280;23615;51.506;7.678;2022-07-23T06:17:19;100350.84;;;16.39;100.00
37778;BME280;23615;51.506;7.678;2022-07-23T06:19:44;100365.56;;;16.54;99.97
37778;BME280;23615;51.506;7.678;2022-07-23T06:22:10;100363.81;;;16.64;99.03
37778;BME280;23615;51.506;7.678;2022-07-23T06:24:35;100361.53;;;16.56;98.50
37778;BME280;23615;51.506;7.678;2022-07-23T06:27:01;100365.59;;;16.59;98.60
37778;BME280;23615;51.506;7.678;2022-07-23T06:29:26;100367.94;;;16.50;98.68
37778;BME280;23615;51.506;7.678;2022-07-23T06:31:52;100370.22;;;16.36;99.14
37778;BME280;23615;51.506;7.678;2022-07-23T06:34:17;100367.88;;;16.45;99.66
37778;BME280;23615;51.506;7.678;2022-07-23T06:36:42;100373.41;;;16.60;99.34
37778;BME280;23615;51.506;7.678;2022-07-23T06:39:07;100371.75;;;16.54;99.02
37778;BME280;23615;51.506;7.678;2022-07-23T06:41:33;100378.66;;;16.45;98.89
37778;BME280;23615;51.506;7.678;2022-07-23T06:43:58;100369.00;;;16.49;99.19
37778;BME280;23615;51.506;7.678;2022-07-23T06:46:23;100369.63;;;16.56;98.51
37778;BME280;23615;51.506;7.678;2022-07-23T06:48:50;100385.00;;;16.61;98.70
37778;BME280;23615;51.506;7.678;2022-07-23T06:51:15;100378.25;;;16.58;99.10
37778;BME280;23615;51.506;7.678;2022-07-23T06:53:40;100391.00;;;16.63;99.61
37778;BME280;23615;51.506;7.678;2022-07-23T06:56:06;100384.09;;;16.72;99.65
37778;BME280;23615;51.506;7.678;2022-07-23T06:58:31;100390.47;;;16.93;98.26
37778;BME280;23615;51.506;7.678;2022-07-23T07:00:57;100392.66;;;16.96;97.80
37778;BME280;23615;51.506;7.678;2022-07-23T07:03:22;100389.69;;;16.97;97.20
37778;BME280;23615;51.506;7.678;2022-07-23T07:05:48;100387.31;;;17.01;97.50
37778;BME280;23615;51.506;7.678;2022-07-23T07:08:14;100387.31;;;17.01;97.27
37778;BME280;23615;51.506;7.678;2022-07-23T07:10:40;100392.72;;;17.01;97.50
37778;BME280;23615;51.506;7.678;2022-07-23T07:13:05;100387.06;;;17.02;97.81
37778;BME280;23615;51.506;7.678;2022-07-23T07:15:31;100400.56;;;17.07;98.49
37778;BME280;23615;51.506;7.678;2022-07-23T07:17:56;100405.16;;;17.07;98.17
37778;BME280;23615;51.506;7.678;2022-07-23T07:20:21;100407.09;;;17.11;98.10
37778;BME280;23615;51.506;7.678;2022-07-23T07:22:47;100397.09;;;17.12;98.01
37778;BME280;23615;51.506;7.678;2022-07-23T07:25:12;100401.47;;;17.18;96.64
37778;BME280;23615;51.506;7.678;2022-07-23T07:27:37;100404.16;;;17.18;96.66
37778;BME280;23615;51.506;7.678;2022-07-23T07:30:04;100407.44;;;17.20;96.34
37778;BME280;23615;51.506;7.678;2022-07-23T07:32:30;100412.53;;;17.21;96.80
37778;BME280;23615;51.506;7.678;2022-07-23T07:34:57;100413.19;;;17.34;96.54
37778;BME280;23615;51.506;7.678;2022-07-23T07:37:22;100417.53;;;17.40;95.54
37778;BME280;23615;51.506;7.678;2022-07-23T07:39:47;100410.81;;;17.42;95.28
37778;BME280;23615;51.506;7.678;2022-07-23T07:42:13;100416.78;;;17.49;94.94
37778;BME280;23615;51.506;7.678;2022-07-23T07:44:38;100413.50;;;17.74;94.95
37778;BME280;23615;51.506;7.678;2022-07-23T07:47:03;100420.28;;;17.82;94.61
37778;BME280;23615;51.506;7.678;2022-07-23T07:49:29;100421.91;;;17.83;95.08
37778;BME280;23615;51.506;7.678;2022-07-23T07:51:54;100420.91;;;17.99;94.79
37778;BME280;23615;51.506;7.678;2022-07-23T07:54:19;100429.59;;;18.06;93.99
37778;BME280;23615;51.506;7.678;2022-07-23T07:56:45;100437.94;;;18.05;93.27
37778;BME280;23615;51.506;7.678;2022-07-23T07:59:10;100432.81;;;18.03;92.24
37778;BME280;23615;51.506;7.678;2022-07-23T08:01:36;100437.41;;;18.03;92.82
37778;BME280;23615;51.506;7.678;2022-07-23T08:04:02;100440.13;;;18.03;92.34
37778;BME280;23615;51.506;7.678;2022-07-23T08:06:27;100444.16;;;18.00;91.27
37778;BME280;23615;51.506;7.678;2022-07-23T08:08:52;100436.28;;;17.93;90.78
37778;BME280;23615;51.506;7.678;2022-07-23T08:11:18;100441.44;;;18.00;91.16
37778;BME280;23615;51.506;7.678;2022-07-23T08:13:43;100438.53;;;18.12;90.73
37778;BME280;23615;51.506;7.678;2022-07-23T08:16:10;100445.63;;;18.28;90.42
37778;BME280;23615;51.506;7.678;2022-07-23T08:18:35;100434.34;;;18.46;89.36
37778;BME280;23615;51.506;7.678;2022-07-23T08:21:00;100441.75;;;18.66;88.95
37778;BME280;23615;51.506;7.678;2022-07-23T08:23:26;100436.34;;;18.71;88.19
37778;BME280;23615;51.506;7.678;2022-07-23T08:25:52;100441.47;;;18.67;83.68
37778;BME280;23615;51.506;7.678;2022-07-23T08:28:18;100439.75;;;18.46;85.33
37778;BME280;23615;51.506;7.678;2022-07-23T08:30:44;100451.56;;;18.25;84.67
37778;BME280;23615;51.506;7.678;2022-07-23T08:33:15;100446.47;;;18.33;85.46
37778;BME280;23615;51.506;7.678;2022-07-23T08:35:44;100450.78;;;18.40;85.54
37778;BME280;23615;51.506;7.678;2022-07-23T08:38:13;100453.84;;;18.53;86.32
37778;BME280;23615;51.506;7.678;2022-07-23T08:40:41;100463.06;;;18.62;86.67
37778;BME280;23615;51.506;7.678;2022-07-23T08:43:09;100458.53;;;18.83;84.54
37778;BME280;23615;51.506;7.678;2022-07-23T08:45:37;100465.06;;;19.02;84.54
37778;BME280;23615;51.506;7.678;2022-07-23T08:48:06;100458.31;;;19.15;82.87
37778;BME280;23615;51.506;7.678;2022-07-23T08:50:32;100457.47;;;18.94;83.45
37778;BME280;23615;51.506;7.678;2022-07-23T08:53:00;100460.16;;;18.89;83.14
37778;BME280;23615;51.506;7.678;2022-07-23T08:55:25;100456.94;;;19.08;84.88
37778;BME280;23615;51.506;7.678;2022-07-23T08:57:52;100462.13;;;19.19;84.65
37778;BME280;23615;51.506;7.678;2022-07-23T09:00:19;100457.78;;;19.28;84.27
37778;BME280;23615;51.506;7.678;2022-07-23T09:02:45;100466.19;;;19.37;84.33
37778;BME280;23615;51.506;7.678;2022-07-23T09:05:12;100463.72;;;19.40;84.51
37778;BME280;23615;51.506;7.678;2022-07-23T09:08:07;100462.13;;;19.34;84.75
37778;BME280;23615;51.506;7.678;2022-07-23T09:10:56;100462.94;;;19.30;82.45
37778;BME280;23615;51.506;7.678;2022-07-23T09:16:08;100460.75;;;19.06;81.64
37778;BME280;23615;51.506;7.678;2022-07-23T09:23:48;100456.44;;;19.46;80.03
37778;BME280;23615;51.506;7.678;2022-07-23T09:28:55;100459.97;;;19.52;75.38
37778;BME280;23615;51.506;7.678;2022-07-23T09:31:21;100461.88;;;19.66;76.37
37778;BME280;23615;51.506;7.678;2022-07-23T09:33:47;100454.78;;;19.86;75.60
37778;BME280;23615;51.506;7.678;2022-07-23T09:36:12;100454.47;;;20.07;76.07
37778;BME280;23615;51.506;7.678;2022-07-23T09:38:48;100454.63;;;20.31;75.49
37778;BME280;23615;51.506;7.678;2022-07-23T09:41:14;100460.31;;;20.40;74.53
37778;BME280;23615;51.506;7.678;2022-07-23T09:43:39;100459.53;;;20.39;74.71
37778;BME280;23615;51.506;7.678;2022-07-23T09:46:22;100461.19;;;20.20;76.38
37778;BME280;23615;51.506;7.678;2022-07-23T09:48:50;100471.56;;;19.88;75.88
37778;BME280;23615;51.506;7.678;2022-07-23T09:51:17;100480.25;;;19.85;75.87
37778;BME280;23615;51.506;7.678;2022-07-23T09:54:01;100472.91;;;19.85;75.57
37778;BME280;23615;51.506;7.678;2022-07-23T09:56:27;100479.66;;;19.98;75.45
37778;BME280;23615;51.506;7.678;2022-07-23T09:58:53;100476.41;;;19.96;71.95
37778;BME280;23615;51.506;7.678;2022-07-23T10:01:31;100474.53;;;19.91;73.40
37778;BME280;23615;51.506;7.678;2022-07-23T10:03:56;100466.06;;;20.13;74.23
37778;BME280;23615;51.506;7.678;2022-07-23T10:06:23;100470.66;;;20.38;73.48
37778;BME280;23615;51.506;7.678;2022-07-23T10:08:50;100469.78;;;20.47;73.62
37778;BME280;23615;51.506;7.678;2022-07-23T10:11:16;100467.38;;;20.41;71.69
37778;BME280;23615;51.506;7.678;2022-07-23T10:13:42;100472.69;;;20.61;71.48
37778;BME280;23615;51.506;7.678;2022-07-23T10:16:21;100468.13;;;20.51;70.60
37778;BME280;23615;51.506;7.678;2022-07-23T10:18:47;100459.00;;;20.37;69.87
37778;BME280;23615;51.506;7.678;2022-07-23T10:21:18;100454.84;;;20.50;70.82
37778;BME280;23615;51.506;7.678;2022-07-23T10:23:58;100459.91;;;20.72;69.50
37778;BME280;23615;51.506;7.678;2022-07-23T10:26:40;100455.44;;;20.91;70.85
37778;BME280;23615;51.506;7.678;2022-07-23T10:29:17;100452.59;;;21.11;71.35
37778;BME280;23615;51.506;7.678;2022-07-23T10:32:05;100457.59;;;21.33;69.85
37778;BME280;23615;51.506;7.678;2022-07-23T10:34:52;100456.78;;;21.38;66.90
37778;BME280;23615;51.506;7.678;2022-07-23T10:37:30;100460.84;;;21.35;66.93
37778;BME280;23615;51.506;7.678;2022-07-23T10:40:18;100460.25;;;21.43;68.09
37778;BME280;23615;51.506;7.678;2022-07-23T10:42:46;100459.97;;;21.74;66.74
37778;BME280;23615;51.506;7.678;2022-07-23T10:45:31;100462.59;;;21.84;67.64
37778;BME280;23615;51.506;7.678;2022-07-23T10:48:27;100453.44;;;21.75;65.00
37778;BME280;23615;51.506;7.678;2022-07-23T10:51:13;100455.19;;;21.89;66.43
37778;BME280;23615;51.506;7.678;2022-07-23T10:59:19;100461.81;;;22.07;63.66
37778;BME280;23615;51.506;7.678;2022-07-23T11:01:45;100459.97;;;22.02;64.58
37778;BME280;23615;51.506;7.678;2022-07-23T11:04:10;100456.22;;;21.98;65.13
37778;BME280;23615;51.506;7.678;2022-07-23T11:15:07;100445.56;;;21.73;62.49
37778;BME280;23615;51.506;7.678;2022-07-23T11:17:37;100440.25;;;21.63;64.40
37778;BME280;23615;51.506;7.678;2022-07-23T11:25:03;100447.38;;;22.12;62.52
37778;BME280;23615;51.506;7.678;2022-07-23T11:27:43;100446.69;;;22.01;63.86
37778;BME280;23615;51.506;7.678;2022-07-23T11:32:54;100443.66;;;22.26;63.28
37778;BME280;23615;51.506;7.678;2022-07-23T11:35:43;100444.22;;;22.47;61.45
37778;BME280;23615;51.506;7.678;2022-07-23T11:38:17;100443.47;;;22.60;62.02
37778;BME280;23615;51.506;7.678;2022-07-23T11:40:53;100440.06;;;22.50;62.52
37778;BME280;23615;51.506;7.678;2022-07-23T11:43:21;100436.28;;;22.69;62.98
37778;BME280;23615;51.506;7.678;2022-07-23T11:45:48;100445.47;;;22.55;61.80
37778;BME280;23615;51.506;7.678;2022-07-23T11:48:26;100442.91;;;22.63;62.91
37778;BME280;23615;51.506;7.678;2022-07-23T11:50:53;100440.91;;;22.69;60.93
37778;BME280;23615;51.506;7.678;2022-07-23T11:53:26;100432.13;;;22.77;61.83
37778;BME280;23615;51.506;7.678;2022-07-23T11:55:52;100448.25;;;22.92;58.62
37778;BME280;23615;51.506;7.678;2022-07-23T11:58:17;100443.44;;;23.03;58.53
37778;BME280;23615;51.506;7.678;2022-07-23T12:00:43;100440.13;;;23.06;59.86
37778;BME280;23615;51.506;7.678;2022-07-23T12:03:08;100439.13;;;23.02;57.05
37778;BME280;23615;51.506;7.678;2022-07-23T12:05:35;100434.09;;;23.09;58.92
37778;BME280;23615;51.506;7.678;2022-07-23T12:08:03;100443.47;;;23.35;60.66
37778;BME280;23615;51.506;7.678;2022-07-23T12:10:42;100445.28;;;23.07;58.22
37778;BME280;23615;51.506;7.678;2022-07-23T12:13:16;100437.09;;;23.07;59.82
37778;BME280;23615;51.506;7.678;2022-07-23T12:15:47;100443.22;;;22.81;58.13
37778;BME280;23615;51.506;7.678;2022-07-23T12:18:18;100442.56;;;22.89;58.29
37778;BME280;23615;51.506;7.678;2022-07-23T12:20:47;100446.31;;;22.93;59.08
37778;BME280;23615;51.506;7.678;2022-07-23T12:23:14;100438.66;;;22.95;57.83
37778;BME280;23615;51.506;7.678;2022-07-23T12:25:43;100441.44;;;23.08;59.59
37778;BME280;23615;51.506;7.678;2022-07-23T12:28:12;100438.31;;;23.01;57.41
37778;BME280;23615;51.506;7.678;2022-07-23T12:30:43;100437.75;;;23.18;58.48
37778;BME280;23615;51.506;7.678;2022-07-23T12:33:15;100440.91;;;23.25;57.73
37778;BME280;23615;51.506;7.678;2022-07-23T12:35:46;100439.03;;;23.07;56.93
37778;BME280;23615;51.506;7.678;2022-07-23T12:38:15;100438.69;;;23.27;57.04
37778;BME280;23615;51.506;7.678;2022-07-23T12:40:43;100437.44;;;23.38;58.50
37778;BME280;23615;51.506;7.678;2022-07-23T12:43:26;100436.56;;;23.24;57.10
37778;BME280;23615;51.506;7.678;2022-07-23T12:45:57;100444.00;;;23.19;57.38
37778;BME280;23615;51.506;7.678;2022-07-23T12:48:25;100441.81;;;23.21;57.02
37778;BME280;23615;51.506;7.678;2022-07-23T12:50:56;100442.13;;;23.33;57.07
37778;BME280;23615;51.506;7.678;2022-07-23T12:53:26;100445.09;;;23.36;56.67
37778;BME280;23615;51.506;7.678;2022-07-23T12:58:54;100444.91;;;23.46;56.40
37778;BME280;23615;51.506;7.678;2022-07-23T13:04:04;100440.69;;;24.00;55.91
37778;BME280;23615;51.506;7.678;2022-07-23T13:06:32;100440.38;;;24.15;55.40
37778;BME280;23615;51.506;7.678;2022-07-23T13:08:57;100447.38;;;24.21;56.08
37778;BME280;23615;51.506;7.678;2022-07-23T13:11:23;100446.25;;;24.22;56.80
37778;BME280;23615;51.506;7.678;2022-07-23T13:13:49;100437.25;;;24.36;57.13
37778;BME280;23615;51.506;7.678;2022-07-23T13:16:14;100436.66;;;24.39;56.16
37778;BME280;23615;51.506;7.678;2022-07-23T13:18:39;100431.09;;;24.44;55.75
37778;BME280;23615;51.506;7.678;2022-07-23T13:21:05;100442.81;;;24.44;54.85
37778;BME280;23615;51.506;7.678;2022-07-23T13:23:30;100449.50;;;24.38;56.18
37778;BME280;23615;51.506;7.678;2022-07-23T13:25:55;100453.50;;;24.13;53.51
37778;BME280;23615;51.506;7.678;2022-07-23T13:28:22;100452.38;;;24.14;55.55